Time;durP1;ratioP1;P1;durP2;ratioP2;P2;SDS_P1;SDS_P2;PMS_P1;PMS_P2;Temp;Humidity;BMP_temperature;BMP_pressure;BME280_temperature;BME280_humidity;BME280_pressure;Samples;Min_cycle;Max_cycle;Signal;HPM_P1;HPM_P2
2023/12/07 00:01:09;;;;;;;;;45.25;35.00;;;;;4.56;81.23;101473.78;5033246;28;45639;-65
2023/12/07 00:03:37;;;;;;;;;48.50;36.75;;;;;4.45;81.51;101470.78;5032383;28;46935;-65
2023/12/07 00:06:03;;;;;;;;;45.25;34.25;;;;;4.66;81.70;101510.50;5029933;28;45573;-66
2023/12/07 00:08:28;;;;;;;;;46.25;36.50;;;;;4.66;81.52;101509.63;5032644;28;45516;-65
2023/12/07 00:10:55;;;;;;;;;49.00;37.50;;;;;4.70;81.24;101503.75;5034070;28;45358;-66
2023/12/07 00:13:21;;;;;;;;;44.50;36.25;;;;;4.86;80.87;101511.28;5033879;28;45501;-65
2023/12/07 00:15:47;;;;;;;;;44.25;35.50;;;;;5.02;80.92;101555.97;5025470;28;45348;-66
2023/12/07 00:18:13;;;;;;;;;45.75;35.50;;;;;4.50;81.24;101450.19;5023954;28;45351;-65
2023/12/07 00:20:39;;;;;;;;;49.25;35.75;;;;;4.92;80.88;101512.34;5021915;28;45462;-65
2023/12/07 00:23:05;;;;;;;;;49.00;35.00;;;;;4.52;80.71;101445.97;5025753;28;46075;-65
2023/12/07 00:25:31;;;;;;;;;46.25;35.75;;;;;4.99;80.51;101512.63;5021085;28;45541;-65
2023/12/07 00:27:57;;;;;;;;;48.25;35.25;;;;;4.89;80.40;101500.13;5023415;28;45935;-66
2023/12/07 00:30:22;;;;;;;;;55.75;39.75;;;;;4.76;80.51;101505.69;5030344;28;45446;-65
2023/12/07 00:32:49;;;;;;;;;44.75;31.75;;;;;4.44;81.07;101438.78;5022767;28;45534;-67
2023/12/07 00:35:16;;;;;;;;;44.25;31.25;;;;;4.74;81.50;101508.19;5023123;28;45540;-66
2023/12/07 00:37:41;;;;;;;;;45.25;36.50;;;;;4.60;81.09;101486.94;5020524;28;45678;-66
2023/12/07 00:40:07;;;;;;;;;47.25;34.00;;;;;4.61;81.52;101478.31;5023349;28;46396;-65
2023/12/07 00:42:34;;;;;;;;;50.50;39.25;;;;;4.72;82.10;101496.00;5033722;28;46104;-67
2023/12/07 00:45:00;;;;;;;;;49.50;38.00;;;;;4.55;82.49;101509.19;5031002;28;45667;-66
2023/12/07 00:47:25;;;;;;;;;49.75;37.50;;;;;4.33;83.26;101496.25;5035627;28;45407;-66
2023/12/07 00:49:51;;;;;;;;;49.00;38.50;;;;;4.43;83.36;101521.69;5035543;28;45426;-66
2023/12/07 00:52:16;;;;;;;;;52.50;39.75;;;;;4.43;83.10;101516.50;5034028;28;45821;-64
2023/12/07 00:54:42;;;;;;;;;49.00;36.50;;;;;4.46;83.49;101509.75;5023924;28;45403;-66
2023/12/07 00:57:08;;;;;;;;;50.75;37.25;;;;;4.51;83.61;101507.34;5017785;28;46384;-64
2023/12/07 00:59:33;;;;;;;;;48.50;36.50;;;;;4.52;83.50;101509.09;5024060;28;45446;-66
2023/12/07 01:02:03;;;;;;;;;55.25;40.25;;;;;4.57;82.87;101517.06;5029888;28;47083;-66
2023/12/07 01:04:29;;;;;;;;;54.00;36.25;;;;;4.47;83.48;101519.28;5028445;28;45405;-65
2023/12/07 01:06:55;;;;;;;;;49.75;36.50;;;;;4.49;83.29;101496.00;5035822;28;45410;-67
2023/12/07 01:09:21;;;;;;;;;41.50;32.25;;;;;4.53;82.70;101490.13;5026192;28;45643;-65
2023/12/07 01:11:48;;;;;;;;;50.50;38.00;;;;;4.74;82.49;101517.69;5027782;28;45493;-65
2023/12/07 01:14:14;;;;;;;;;49.50;38.75;;;;;4.69;82.08;101507.16;5025915;28;45558;-66
2023/12/07 01:16:40;;;;;;;;;46.00;36.00;;;;;4.72;82.85;101516.75;5035737;28;45609;-66
2023/12/07 01:19:07;;;;;;;;;46.25;35.25;;;;;4.38;81.92;101463.56;5030700;28;45418;-65
2023/12/07 01:21:33;;;;;;;;;48.75;38.75;;;;;4.63;81.57;101487.06;5024381;28;46325;-65
2023/12/07 01:23:59;;;;;;;;;51.25;37.75;;;;;4.62;81.63;101482.66;5032396;28;46829;-65
2023/12/07 01:26:25;;;;;;;;;48.50;35.50;;;;;4.53;82.13;101453.81;5033731;28;45350;-66
2023/12/07 01:29:01;;;;;;;;;44.50;34.50;;;;;4.84;82.10;101518.13;5035462;28;45434;-66
2023/12/07 01:31:50;;;;;;;;;46.50;34.50;;;;;4.78;81.96;101504.91;5025215;28;45576;-66
2023/12/07 01:34:22;;;;;;;;;48.00;36.25;;;;;4.66;82.20;101484.56;5029896;28;45504;-63
2023/12/07 01:36:51;;;;;;;;;49.50;37.75;;;;;3.90;81.75;101342.47;5028847;28;45470;-65
2023/12/07 01:39:17;;;;;;;;;46.00;35.50;;;;;4.82;81.57;101498.13;5021946;28;45556;-66
2023/12/07 01:41:54;;;;;;;;;47.75;33.50;;;;;4.39;81.63;101429.94;5030728;28;47678;-64
2023/12/07 01:44:19;;;;;;;;;44.00;32.50;;;;;4.73;82.54;101490.00;5035704;28;45450;-65
2023/12/07 01:46:45;;;;;;;;;48.25;37.00;;;;;4.63;82.85;101487.06;5033506;28;45449;-66
2023/12/07 01:49:11;;;;;;;;;43.00;32.00;;;;;4.40;82.35;101461.94;5024234;28;45558;-65
2023/12/07 01:51:37;;;;;;;;;42.50;34.25;;;;;4.45;82.35;101486.34;5028415;28;46236;-65
2023/12/07 01:54:03;;;;;;;;;44.75;33.00;;;;;4.49;82.95;101503.78;5026596;28;45418;-66
2023/12/07 01:56:30;;;;;;;;;34.50;31.50;;;;;4.45;83.09;101489.81;5032811;28;45534;-68
2023/12/07 01:58:57;;;;;;;;;44.50;34.25;;;;;4.38;83.25;101469.63;5036790;28;45386;-66
2023/12/07 02:01:23;;;;;;;;;47.25;36.00;;;;;4.42;83.19;101475.84;5037386;28;46097;-65
2023/12/07 02:03:49;;;;;;;;;42.25;34.25;;;;;4.54;82.29;101502.25;5030900;28;45525;-66
2023/12/07 02:06:15;;;;;;;;;37.50;31.25;;;;;4.39;83.67;101493.88;5019611;28;45426;-65
2023/12/07 02:08:41;;;;;;;;;40.00;29.75;;;;;4.50;83.27;101505.56;5022648;28;45453;-67
2023/12/07 02:11:09;;;;;;;;;39.50;32.75;;;;;4.43;82.79;101491.44;5022459;28;45550;-67
2023/12/07 02:13:40;;;;;;;;;41.25;33.25;;;;;4.47;82.66;101493.34;5023269;28;45539;-65
2023/12/07 02:16:15;;;;;;;;;43.25;32.00;;;;;4.52;83.07;101484.88;5018986;28;45758;-68
2023/12/07 02:19:23;;;;;;;;;38.00;30.50;;;;;4.61;82.40;101482.63;5026045;28;45482;-66
2023/12/07 02:21:56;;;;;;;;;43.25;34.00;;;;;4.59;82.24;101481.69;4993816;28;45523;-65
2023/12/07 02:24:25;;;;;;;;;42.25;33.00;;;;;4.59;82.03;101479.97;5021050;28;45422;-66
2023/12/07 02:26:51;;;;;;;;;41.00;33.25;;;;;4.52;81.91;101470.19;5022092;28;45451;-67
2023/12/07 02:29:16;;;;;;;;;37.25;31.00;;;;;4.53;81.79;101469.38;5024384;28;45414;-66
2023/12/07 02:31:42;;;;;;;;;42.25;33.75;;;;;4.20;81.85;101407.59;5021594;28;46397;-66
2023/12/07 02:34:09;;;;;;;;;31.00;28.50;;;;;4.53;82.80;101473.66;5024326;28;45563;-66
2023/12/07 02:36:37;;;;;;;;;40.00;29.75;;;;;4.46;81.89;101444.00;5017177;28;45446;-65
2023/12/07 02:39:04;;;;;;;;;44.50;33.00;;;;;4.54;82.47;101468.53;5023224;28;45616;-66
2023/12/07 02:41:32;;;;;;;;;41.00;33.25;;;;;4.54;81.89;101463.34;5032997;28;46041;-66
2023/12/07 02:43:58;;;;;;;;;38.25;29.75;;;;;4.42;82.35;101444.72;5037035;28;45469;-65
2023/12/07 02:46:27;;;;;;;;;43.25;36.25;;;;;4.57;81.74;101463.44;5035524;28;45528;-66
2023/12/07 02:48:58;;;;;;;;;39.75;33.25;;;;;4.39;82.43;101434.22;5037859;28;45359;-66
2023/12/07 02:51:26;;;;;;;;;44.50;35.25;;;;;4.35;82.23;101437.53;5036556;28;46700;-64
2023/12/07 02:53:52;;;;;;;;;40.25;32.50;;;;;4.57;82.22;101470.34;5038070;28;45378;-66
2023/12/07 02:56:17;;;;;;;;;38.75;32.50;;;;;3.86;82.26;101358.72;5038185;28;45512;-66
2023/12/07 02:58:43;;;;;;;;;44.00;32.25;;;;;4.57;82.06;101481.63;5038659;28;46219;-65
2023/12/07 03:01:10;;;;;;;;;40.50;31.50;;;;;4.46;81.89;101460.47;5037009;28;46323;-65
2023/12/07 03:03:36;;;;;;;;;40.50;31.75;;;;;4.33;81.72;101444.38;5037941;28;45580;-65
2023/12/07 03:06:01;;;;;;;;;44.00;33.25;;;;;4.72;81.84;101498.59;5036916;28;45541;-66
2023/12/07 03:08:28;;;;;;;;;37.50;32.25;;;;;4.53;81.65;101447.72;5038275;28;45220;-65
2023/12/07 03:10:54;;;;;;;;;26.00;24.75;;;;;4.66;81.08;101486.28;5037376;28;46185;-64
2023/12/07 03:13:19;;;;;;;;;36.25;32.00;;;;;4.75;81.58;101502.19;5037112;28;45284;-66
2023/12/07 03:15:45;;;;;;;;;37.75;31.50;;;;;4.77;81.34;101459.03;5035612;28;45356;-65
2023/12/07 03:18:10;;;;;;;;;36.50;32.25;;;;;4.70;80.73;101415.50;5036816;28;45334;-65
2023/12/07 03:20:36;;;;;;;;;45.75;32.00;;;;;4.41;81.33;101360.84;5036253;28;45545;-65
2023/12/07 03:23:02;;;;;;;;;39.50;33.00;;;;;4.61;81.28;101399.59;5037432;28;45457;-65
2023/12/07 03:25:31;;;;;;;;;38.25;33.00;;;;;4.34;81.62;101361.44;5037123;28;45655;-65
2023/12/07 03:28:00;;;;;;;;;40.00;31.75;;;;;4.56;81.15;101391.66;5030372;28;45335;-66
2023/12/07 03:30:26;;;;;;;;;42.50;36.00;;;;;4.40;81.72;101353.00;5029556;28;46354;-66
2023/12/07 03:32:52;;;;;;;;;37.00;31.50;;;;;4.35;81.47;101370.09;5036476;28;45784;-66
2023/12/07 03:35:21;;;;;;;;;41.00;33.75;;;;;4.31;82.43;101388.97;5037706;28;45456;-66
2023/12/07 03:37:49;;;;;;;;;41.75;31.25;;;;;4.02;82.75;101361.09;5037844;28;45326;-66
2023/12/07 03:40:16;;;;;;;;;46.50;34.00;;;;;3.99;83.21;101373.94;5037453;28;45450;-66
2023/12/07 03:42:42;;;;;;;;;43.25;32.00;;;;;4.08;83.09;101401.03;5037468;28;45561;-66
2023/12/07 03:45:08;;;;;;;;;42.75;32.25;;;;;3.95;84.36;101397.09;5037486;28;45501;-66
2023/12/07 03:47:34;;;;;;;;;43.00;33.25;;;;;3.24;83.62;101249.22;5037775;28;45327;-66
2023/12/07 03:49:59;;;;;;;;;37.25;31.00;;;;;3.77;84.72;101341.13;5036379;28;46147;-65
2023/12/07 03:52:25;;;;;;;;;40.00;32.50;;;;;3.89;83.24;101342.41;5036219;28;45421;-66
2023/12/07 03:54:52;;;;;;;;;39.00;30.50;;;;;4.14;83.70;101402.16;5037489;28;45768;-66
2023/12/07 03:57:17;;;;;;;;;37.25;31.25;;;;;3.93;84.62;101384.06;5037581;28;45474;-64
2023/12/07 03:59:43;;;;;;;;;30.25;28.75;;;;;3.99;84.28;101394.69;5035069;28;46165;-65
2023/12/07 04:02:08;;;;;;;;;39.00;31.75;;;;;3.91;84.25;101366.69;5036037;28;45351;-65
2023/12/07 04:04:34;;;;;;;;;37.25;30.00;;;;;4.05;84.42;101388.84;5035930;28;45434;-65
2023/12/07 04:06:59;;;;;;;;;39.50;33.75;;;;;4.03;85.57;101393.06;5035905;28;45430;-66
2023/12/07 04:09:25;;;;;;;;;37.75;31.25;;;;;3.86;85.70;101384.63;5034393;28;46929;-65
2023/12/07 04:11:54;;;;;;;;;37.00;31.25;;;;;3.97;85.17;101380.75;5035804;28;45461;-66
2023/12/07 04:14:20;;;;;;;;;43.00;33.00;;;;;3.60;84.94;101324.00;5036296;28;45496;-64
2023/12/07 04:16:45;;;;;;;;;40.50;32.00;;;;;4.06;85.10;101405.25;5035947;28;45415;-65
2023/12/07 04:19:11;;;;;;;;;35.25;31.75;;;;;4.13;84.91;101417.66;5035356;28;45936;-65
2023/12/07 04:21:37;;;;;;;;;39.75;30.75;;;;;4.17;85.22;101427.31;5035530;28;45368;-66
2023/12/07 04:24:03;;;;;;;;;36.75;31.00;;;;;4.14;85.45;101420.31;5034660;28;45331;-66
2023/12/07 04:26:29;;;;;;;;;40.50;30.25;;;;;4.32;84.56;101432.19;5036054;28;45426;-66
2023/12/07 04:29:01;;;;;;;;;39.25;32.00;;;;;4.27;83.94;101405.22;5027204;28;45366;-66
2023/12/07 04:31:27;;;;;;;;;34.50;28.50;;;;;4.43;84.38;101430.91;5036822;28;45486;-66
2023/12/07 04:33:52;;;;;;;;;34.25;30.25;;;;;4.10;83.99;101355.31;5036670;28;45518;-66
2023/12/07 04:36:18;;;;;;;;;37.75;31.50;;;;;4.52;82.98;101410.50;5037276;28;45318;-66
2023/12/07 04:38:44;;;;;;;;;36.50;32.00;;;;;4.41;83.54;101388.47;5038038;28;45504;-65
2023/12/07 04:41:09;;;;;;;;;33.50;29.25;;;;;4.50;83.08;101404.38;5039224;28;45726;-65
2023/12/07 04:43:35;;;;;;;;;36.25;30.00;;;;;4.48;83.44;101395.66;5037537;28;45287;-65
2023/12/07 04:46:00;;;;;;;;;37.25;30.50;;;;;4.41;83.38;101383.28;5039354;28;45558;-66
2023/12/07 04:48:26;;;;;;;;;35.75;30.00;;;;;4.34;83.38;101382.19;5040210;28;45324;-66
2023/12/07 04:50:52;;;;;;;;;34.00;29.75;;;;;4.40;83.47;101391.91;5040474;28;45304;-65
2023/12/07 04:53:17;;;;;;;;;43.00;31.75;;;;;4.37;83.05;101382.28;5039520;28;45425;-65
2023/12/07 04:55:47;;;;;;;;;40.75;29.50;;;;;4.16;83.97;101359.03;5038771;28;45390;-67
2023/12/07 04:58:13;;;;;;;;;42.00;33.00;;;;;4.22;84.50;101376.50;5038420;28;46481;-66
2023/12/07 05:00:38;;;;;;;;;45.00;30.50;;;;;4.20;83.63;101357.41;5038226;28;45819;-66
2023/12/07 05:03:04;;;;;;;;;39.25;30.75;;;;;4.25;83.85;101369.75;5038320;28;45361;-64
2023/12/07 05:05:29;;;;;;;;;36.75;31.00;;;;;4.24;83.62;101356.72;5038715;28;45670;-66
2023/12/07 05:07:55;;;;;;;;;43.50;30.25;;;;;4.21;83.61;101354.91;5038664;28;45481;-65
2023/12/07 05:10:26;;;;;;;;;43.00;32.00;;;;;4.00;83.61;101321.25;5037092;28;45387;-66
2023/12/07 05:12:53;;;;;;;;;38.75;31.00;;;;;4.29;83.33;101356.88;5053489;27;45885;-67
2023/12/07 05:15:18;;;;;;;;;43.75;32.00;;;;;4.31;82.84;101347.47;5037094;28;45545;-66
2023/12/07 05:17:44;;;;;;;;;34.50;30.75;;;;;4.14;83.26;101332.16;5037818;28;47645;-66
2023/12/07 05:20:12;;;;;;;;;42.75;31.50;;;;;4.08;83.55;101312.88;5040082;28;45411;-66
2023/12/07 05:22:38;;;;;;;;;37.00;31.75;;;;;4.24;83.18;101325.59;5040315;28;45410;-65
2023/12/07 05:25:04;;;;;;;;;42.75;32.75;;;;;4.21;82.93;101328.97;5039399;28;45472;-66
2023/12/07 05:27:37;;;;;;;;;40.50;31.25;;;;;4.16;82.77;101311.47;5035495;28;46224;-66
2023/12/07 05:30:02;;;;;;;;;41.50;33.25;;;;;4.27;83.18;101314.47;5036332;28;45507;-64
2023/12/07 05:32:28;;;;;;;;;39.50;32.00;;;;;4.20;82.49;101314.25;5038945;28;45392;-66
2023/12/07 05:34:53;;;;;;;;;36.00;30.00;;;;;4.09;82.64;101310.38;5038705;28;45575;-67
2023/12/07 05:37:20;;;;;;;;;36.50;32.00;;;;;4.15;83.45;101331.34;5038915;28;45475;-66
2023/12/07 05:39:46;;;;;;;;;40.75;30.50;;;;;3.76;82.92;101264.19;5038503;28;45525;-69
2023/12/07 05:42:11;;;;;;;;;35.50;29.75;;;;;3.91;83.26;101289.81;5039909;28;45398;-66
2023/12/07 05:44:37;;;;;;;;;41.00;32.75;;;;;4.11;82.19;101313.03;5039650;28;45294;-64
2023/12/07 05:47:07;;;;;;;;;42.50;31.50;;;;;4.26;82.33;101342.09;5038053;28;45897;-66
2023/12/07 05:49:33;;;;;;;;;37.00;31.25;;;;;4.32;82.07;101344.94;5036798;28;45603;-66
2023/12/07 05:51:59;;;;;;;;;44.25;32.75;;;;;4.32;81.64;101341.44;5039121;28;45635;-66
2023/12/07 05:54:25;;;;;;;;;40.75;32.25;;;;;4.14;81.74;101323.50;5038421;28;45441;-65
2023/12/07 05:56:51;;;;;;;;;43.50;31.50;;;;;4.30;81.63;101345.72;5037940;28;45539;-66
2023/12/07 05:59:20;;;;;;;;;33.75;29.50;;;;;3.97;81.77;101302.13;5037722;28;45816;-65
2023/12/07 06:01:45;;;;;;;;;41.50;27.75;;;;;4.12;82.02;101322.56;5039010;28;45965;-65
2023/12/07 06:04:12;;;;;;;;;39.50;33.00;;;;;4.27;81.63;101327.41;5038603;28;45584;-65
2023/12/07 06:06:38;;;;;;;;;34.25;28.75;;;;;4.32;81.67;101320.69;5032657;28;45432;-67
2023/12/07 06:09:07;;;;;;;;;38.00;30.00;;;;;4.07;81.85;101295.59;5032879;28;45554;-66
2023/12/07 06:11:35;;;;;;;;;38.25;31.25;;;;;4.16;81.25;101320.13;5039847;28;45295;-66
2023/12/07 06:14:01;;;;;;;;;37.00;30.00;;;;;3.96;82.09;101285.72;5039106;28;45463;-65
2023/12/07 06:16:27;;;;;;;;;33.25;30.25;;;;;4.01;82.38;101304.91;5038661;28;46274;-65
2023/12/07 06:18:54;;;;;;;;;32.50;29.75;;;;;4.20;82.29;101328.91;5037420;28;45569;-64
2023/12/07 06:21:21;;;;;;;;;38.50;30.25;;;;;3.36;81.91;101163.38;5037587;28;47039;-67
2023/12/07 06:24:00;;;;;;;;;37.50;30.75;;;;;4.13;81.39;101291.50;5038058;28;45473;-68
2023/12/07 06:26:26;;;;;;;;;34.00;28.00;;;;;4.21;81.58;101299.56;5037317;28;45511;-66
2023/12/07 06:28:51;;;;;;;;;36.25;27.50;;;;;4.34;81.18;101314.75;5032858;28;45433;-67
2023/12/07 06:31:21;;;;;;;;;35.00;30.00;;;;;3.74;81.13;101207.97;5039056;28;45431;-66
2023/12/07 06:33:47;;;;;;;;;33.00;29.00;;;;;4.35;81.43;101303.53;5038473;28;45378;-68
2023/12/07 06:36:21;;;;;;;;;33.00;30.00;;;;;4.23;81.06;101269.41;5037925;28;46409;-67
2023/12/07 06:38:47;;;;;;;;;29.75;26.25;;;;;4.34;80.85;101285.31;5037903;28;45382;-66
2023/12/07 06:41:14;;;;;;;;;36.50;30.00;;;;;4.43;80.75;101301.22;5054435;28;45484;-67
2023/12/07 06:43:44;;;;;;;;;34.50;32.00;;;;;4.45;79.97;101303.03;5039032;28;45468;-68
2023/12/07 06:46:14;;;;;;;;;31.25;26.75;;;;;4.08;80.20;101227.34;5036590;28;47428;-65
2023/12/07 06:48:40;;;;;;;;;36.00;30.00;;;;;4.44;80.37;101295.22;5037776;28;45469;-65
2023/12/07 06:51:10;;;;;;;;;33.25;28.00;;;;;4.40;80.80;101285.56;5038558;28;45520;-65
2023/12/07 06:53:35;;;;;;;;;28.50;25.75;;;;;3.91;80.96;101200.81;5038078;28;45471;-66
2023/12/07 06:56:01;;;;;;;;;34.75;26.75;;;;;4.29;80.54;101279.09;5037631;28;45244;-67
2023/12/07 06:58:31;;;;;;;;;41.50;32.75;;;;;4.15;80.28;101242.28;5025655;28;45458;-67
2023/12/07 07:00:57;;;;;;;;;37.50;32.25;;;;;4.24;80.90;101269.44;5024971;28;45196;-65
2023/12/07 07:03:23;;;;;;;;;28.25;26.75;;;;;4.06;81.76;101248.06;5038961;28;45445;-68
2023/12/07 07:05:48;;;;;;;;;33.75;29.75;;;;;4.13;81.65;101268.19;5030829;28;45599;-65
2023/12/07 07:08:13;;;;;;;;;30.00;26.00;;;;;4.10;81.46;101254.22;5037586;28;46067;-66
2023/12/07 07:10:39;;;;;;;;;32.00;26.00;;;;;4.12;81.81;101262.94;5031058;28;45293;-65
2023/12/07 07:13:08;;;;;;;;;33.75;27.75;;;;;4.07;81.74;101241.16;5027453;28;45370;-65
2023/12/07 07:15:34;;;;;;;;;31.00;25.50;;;;;4.20;80.93;101253.72;5030284;28;45577;-66
2023/12/07 07:18:01;;;;;;;;;36.25;31.75;;;;;4.05;81.21;101220.34;5027455;28;45261;-65
2023/12/07 07:20:27;;;;;;;;;25.50;23.50;;;;;4.32;81.59;101267.13;5028631;28;45501;-66
2023/12/07 07:22:52;;;;;;;;;28.50;25.75;;;;;3.90;80.63;101197.34;5030978;28;45488;-66
2023/12/07 07:25:21;;;;;;;;;32.50;30.00;;;;;4.18;81.01;101238.13;5025368;28;46235;-67
2023/12/07 07:27:47;;;;;;;;;29.00;26.75;;;;;4.42;80.14;101279.59;5026429;28;45557;-66
2023/12/07 07:30:18;;;;;;;;;27.50;26.25;;;;;4.38;80.11;101266.47;5024656;28;45227;-66
2023/12/07 07:32:44;;;;;;;;;29.00;26.50;;;;;4.34;80.47;101275.88;5028742;28;45422;-67
2023/12/07 07:35:11;;;;;;;;;32.25;30.00;;;;;4.01;80.13;101223.63;5035188;28;46063;-66
2023/12/07 07:37:38;;;;;;;;;33.25;28.25;;;;;3.74;80.39;101170.00;5036240;28;45548;-66
2023/12/07 07:40:06;;;;;;;;;32.75;26.50;;;;;4.60;80.07;101300.13;5037150;28;45407;-66
2023/12/07 07:42:33;;;;;;;;;29.00;26.25;;;;;4.30;80.13;101248.03;5037610;28;45473;-66
2023/12/07 07:44:59;;;;;;;;;33.50;29.00;;;;;4.52;80.26;101285.13;5036940;28;45576;-66
2023/12/07 07:47:25;;;;;;;;;35.75;27.75;;;;;4.53;80.42;101287.78;5037437;28;46251;-66
2023/12/07 07:49:50;;;;;;;;;30.75;30.50;;;;;4.49;80.07;101266.84;5024671;28;45404;-66
2023/12/07 07:52:16;;;;;;;;;38.50;30.00;;;;;4.46;79.88;101265.00;5017485;28;45496;-68
2023/12/07 07:54:43;;;;;;;;;35.00;30.50;;;;;4.46;79.72;101265.91;5036387;28;46290;-66
2023/12/07 07:57:09;;;;;;;;;29.25;28.25;;;;;4.28;80.51;101241.03;5031113;28;45493;-66
2023/12/07 07:59:35;;;;;;;;;40.50;30.25;;;;;4.18;80.34;101216.50;5028198;28;45598;-66
2023/12/07 08:02:00;;;;;;;;;33.00;30.00;;;;;4.38;80.78;101253.50;5031670;28;45520;-66
2023/12/07 08:04:26;;;;;;;;;35.50;29.25;;;;;4.31;80.12;101244.59;5026748;28;45807;-66
2023/12/07 08:06:51;;;;;;;;;32.00;28.50;;;;;4.25;79.55;101234.91;5033196;28;45516;-66
2023/12/07 08:09:17;;;;;;;;;33.50;29.50;;;;;4.29;80.20;101237.59;5024792;28;45449;-66
2023/12/07 08:11:42;;;;;;;;;33.75;28.00;;;;;4.47;79.46;101266.78;5028433;28;45851;-66
2023/12/07 08:14:12;;;;;;;;;38.00;31.50;;;;;4.41;80.50;101257.09;5032795;28;45846;-68
2023/12/07 08:16:42;;;;;;;;;24.00;24.00;;;;;4.45;79.55;101237.31;5029934;28;45292;-67
2023/12/07 08:19:08;;;;;;;;;33.75;29.75;;;;;4.52;79.59;101218.53;5024404;28;45567;-64
2023/12/07 08:21:34;;;;;;;;;34.00;29.50;;;;;4.12;79.84;101167.88;5026589;28;45430;-67
2023/12/07 08:24:00;;;;;;;;;35.50;30.50;;;;;4.53;79.90;101225.50;5023051;28;47392;-66
2023/12/07 08:26:27;;;;;;;;;33.75;30.00;;;;;4.47;79.33;101220.09;5023093;28;45375;-66
2023/12/07 08:28:53;;;;;;;;;39.00;32.50;;;;;4.52;79.88;101218.53;5023814;28;45393;-65
2023/12/07 08:31:20;;;;;;;;;37.00;31.25;;;;;4.57;79.46;101208.31;5027256;28;45563;-65
2023/12/07 08:33:48;;;;;;;;;37.50;31.25;;;;;4.62;79.31;101211.94;5024358;28;45284;-65
2023/12/07 08:36:15;;;;;;;;;33.75;30.25;;;;;4.60;78.70;101218.78;5037571;28;45552;-66
2023/12/07 08:38:41;;;;;;;;;27.75;27.25;;;;;3.89;78.72;101080.66;5035412;28;45525;-64
2023/12/07 08:41:07;;;;;;;;;36.50;30.00;;;;;3.87;78.26;101072.88;5022894;28;45665;-64
2023/12/07 08:43:33;;;;;;;;;35.50;31.00;;;;;4.61;78.29;101184.25;5027254;28;46249;-65
2023/12/07 08:46:01;;;;;;;;;37.75;30.00;;;;;4.61;78.39;101205.00;5036851;28;45302;-65
2023/12/07 08:48:27;;;;;;;;;31.25;29.25;;;;;4.53;78.30;101184.00;5034530;28;45394;-70
2023/12/07 08:50:53;;;;;;;;;26.00;21.75;;;;;4.54;78.64;101193.53;5032809;28;45444;-66
2023/12/07 08:53:18;;;;;;;;;32.00;26.50;;;;;4.55;78.54;101200.47;5031867;28;45488;-65
2023/12/07 08:55:58;;;;;;;;;32.75;26.25;;;;;4.37;79.20;101171.34;5034042;28;45458;-67
2023/12/07 08:58:27;;;;;;;;;36.50;30.75;;;;;4.56;78.77;101191.88;5036641;28;45417;-65
2023/12/07 09:00:53;;;;;;;;;36.00;29.00;;;;;4.49;79.01;101169.16;5033328;28;45483;-68
2023/12/07 09:03:18;;;;;;;;;24.75;20.50;;;;;4.70;78.81;101178.47;5038599;28;46587;-65
2023/12/07 09:05:44;;;;;;;;;34.00;29.00;;;;;4.74;78.28;101172.56;5034392;28;45596;-67
2023/12/07 09:08:10;;;;;;;;;31.00;27.75;;;;;4.61;78.31;101154.00;5039218;28;45524;-68
2023/12/07 09:10:35;;;;;;;;;36.00;29.75;;;;;4.74;78.96;101151.78;5040027;28;45374;-69
2023/12/07 09:13:02;;;;;;;;;37.50;32.00;;;;;4.99;77.98;101174.25;5039762;28;45350;-68
2023/12/07 09:15:27;;;;;;;;;30.75;27.50;;;;;4.93;77.71;101125.59;5039848;28;45480;-71
2023/12/07 09:17:54;;;;;;;;;33.00;28.25;;;;;5.27;77.00;101158.69;5041383;28;45308;-81
2023/12/07 09:20:24;;;;;;;;;29.75;27.50;;;;;5.45;77.36;101160.06;5040412;28;45595;-81
2023/12/07 09:22:50;;;;;;;;;34.75;29.00;;;;;5.62;75.36;101160.53;5039491;28;46231;-67
2023/12/07 09:25:16;;;;;;;;;26.75;25.25;;;;;5.65;73.78;101142.47;5040109;28;45524;-64
2023/12/07 09:27:42;;;;;;;;;33.25;26.75;;;;;5.64;73.55;101123.38;5035477;28;45494;-64
2023/12/07 09:30:12;;;;;;;;;32.75;25.75;;;;;5.46;72.93;101087.38;5040746;28;45474;-65
2023/12/07 09:32:42;;;;;;;;;28.00;23.75;;;;;5.69;73.46;101115.69;5038897;28;45481;-65
2023/12/07 09:35:18;;;;;;;;;39.00;30.25;;;;;5.66;72.80;101098.31;5039069;28;45275;-67
2023/12/07 09:37:45;;;;;;;;;25.00;25.00;;;;;5.94;72.96;101110.38;5038202;28;45366;-65
2023/12/07 09:40:19;;;;;;;;;24.25;23.00;;;;;5.47;71.98;101018.09;5039973;28;45343;-64
2023/12/07 09:42:46;;;;;;;;;27.75;22.25;;;;;5.47;71.80;101031.09;5037019;28;47526;-65
2023/12/07 09:45:13;;;;;;;;;20.75;19.00;;;;;6.12;71.83;101122.09;5038941;28;45445;-66
2023/12/07 09:47:41;;;;;;;;;24.25;19.75;;;;;6.10;70.62;101113.41;5039494;28;45364;-65
2023/12/07 09:50:08;;;;;;;;;25.25;22.25;;;;;6.05;70.81;101109.78;5038708;28;45470;-64
2023/12/07 09:52:40;;;;;;;;;18.25;16.75;;;;;5.72;70.89;101050.84;5055188;28;46646;-67
2023/12/07 09:55:07;;;;;;;;;28.25;21.00;;;;;5.99;70.63;101101.81;5041523;28;45889;-68
2023/12/07 09:57:40;;;;;;;;;27.75;27.75;;;;;5.76;71.46;101065.66;5040952;28;45386;-67
2023/12/07 10:00:10;;;;;;;;;21.50;19.00;;;;;5.43;70.61;100974.69;5040505;28;45424;-68
2023/12/07 10:02:38;;;;;;;;;29.25;21.25;;;;;5.99;70.79;101086.22;5039579;28;45319;-69
2023/12/07 10:05:06;;;;;;;;;21.25;18.25;;;;;5.94;70.96;101066.19;5039751;28;45534;-70
2023/12/07 10:07:37;;;;;;;;;26.00;23.75;;;;;5.80;70.57;101048.44;5038230;28;45335;-68
2023/12/07 10:10:04;;;;;;;;;25.25;20.25;;;;;5.78;70.64;101056.19;5054349;28;45388;-69
2023/12/07 10:12:34;;;;;;;;;25.00;21.25;;;;;5.72;70.79;101032.63;5037861;28;46203;-69
2023/12/07 10:15:20;;;;;;;;;25.50;23.25;;;;;5.51;71.21;101002.63;5036710;28;45545;-69
2023/12/07 10:17:54;;;;;;;;;22.25;18.75;;;;;5.80;70.66;101049.31;5038081;28;45434;-68
2023/12/07 10:20:24;;;;;;;;;19.00;18.50;;;;;5.38;70.03;100976.28;5038138;28;45505;-68
2023/12/07 10:23:09;;;;;;;;;23.25;17.25;;;;;5.71;71.36;101023.06;5038418;28;45537;-69
2023/12/07 10:25:40;;;;;;;;;23.00;20.25;;;;;5.59;71.02;100971.66;5038435;28;45366;-67
2023/12/07 10:28:07;;;;;;;;;21.25;17.25;;;;;5.97;70.81;101030.69;5031303;28;45305;-68
2023/12/07 10:30:34;;;;;;;;;25.00;20.25;;;;;5.69;70.34;100973.63;5038952;28;45493;-69
2023/12/07 10:33:00;;;;;;;;;29.75;20.75;;;;;5.65;69.51;100971.81;5037419;28;45413;-69
2023/12/07 10:35:25;;;;;;;;;27.50;20.25;;;;;5.83;69.71;100992.19;5037822;28;45568;-68
2023/12/07 10:37:51;;;;;;;;;19.50;17.50;;;;;5.92;69.59;101010.63;5039226;28;45493;-67
2023/12/07 10:40:20;;;;;;;;;22.75;17.75;;;;;5.64;69.48;100972.66;5039456;28;45486;-68
2023/12/07 10:42:48;;;;;;;;;24.50;21.00;;;;;5.73;69.33;100990.22;5038345;28;45638;-70
2023/12/07 10:45:15;;;;;;;;;22.00;20.50;;;;;5.82;69.68;100989.56;5038126;28;45331;-67
2023/12/07 10:47:43;;;;;;;;;34.75;22.75;;;;;5.87;69.56;100986.22;5037796;28;46011;-67
2023/12/07 10:50:13;;;;;;;;;21.25;19.25;;;;;5.84;70.17;101000.91;5038388;28;45553;-68
2023/12/07 10:52:51;;;;;;;;;33.00;22.25;;;;;5.71;70.22;100971.09;5037640;28;46175;-66
2023/12/07 10:55:25;;;;;;;;;22.50;21.00;;;;;5.80;70.12;100986.91;5053085;28;45753;-67
2023/12/07 10:57:54;;;;;;;;;23.25;19.00;;;;;5.80;70.43;100988.66;5037352;28;45418;-67
2023/12/07 11:00:23;;;;;;;;;23.25;19.50;;;;;5.88;69.93;100989.72;5037832;28;45525;-68
2023/12/07 11:02:52;;;;;;;;;18.00;14.75;;;;;5.87;70.46;100980.16;5037189;28;45697;-66
2023/12/07 11:05:18;;;;;;;;;22.25;21.00;;;;;5.91;69.67;100966.41;5053306;28;45530;-68
2023/12/07 11:07:58;;;;;;;;;24.25;21.50;;;;;5.88;69.81;100961.97;5037318;28;45336;-68
2023/12/07 11:10:33;;;;;;;;;23.75;21.00;;;;;5.90;70.07;100954.22;5038829;28;45322;-66
2023/12/07 11:13:37;;;;;;;;;16.00;16.00;;;;;5.80;70.25;100947.94;5038490;28;45876;-67
2023/12/07 11:16:03;;;;;;;;;24.25;21.25;;;;;5.72;69.51;100944.28;5033380;28;45456;-67
2023/12/07 11:18:29;;;;;;;;;24.00;21.00;;;;;5.68;70.54;100937.22;5037916;28;45451;-69